sensor_id;sensor_type;location;lat;lon;timestamp;P1;durP1;ratioP1;P2;durP2;ratioP2
75894;SDS011;64573;50.328;15.014;2023-09-19T00:00:43;8.15;;;2.15;;
75894;SDS011;64573;50.328;15.014;2023-09-19T00:03:09;3.38;;;1.70;;
75894;SDS011;64573;50.328;15.014;2023-09-19T00:05:35;3.92;;;1.63;;
75894;SDS011;64573;50.328;15.014;2023-09-19T00:08:03;5.50;;;1.60;;
75894;SDS011;64573;50.328;15.014;2023-09-19T00:10:29;3.03;;;1.60;;
75894;SDS011;64573;50.328;15.014;2023-09-19T00:13:02;2.58;;;1.40;;
75894;SDS011;64573;50.328;15.014;2023-09-19T00:15:41;3.90;;;1.50;;
75894;SDS011;64573;50.328;15.014;2023-09-19T00:18:13;4.63;;;1.50;;
75894;SDS011;64573;50.328;15.014;2023-09-19T00:20:40;3.85;;;1.70;;
75894;SDS011;64573;50.328;15.014;2023-09-19T00:23:07;2.35;;;1.50;;
75894;SDS011;64573;50.328;15.014;2023-09-19T00:25:35;3.40;;;1.55;;
75894;SDS011;64573;50.328;15.014;2023-09-19T00:28:02;4.30;;;1.50;;
75894;SDS011;64573;50.328;15.014;2023-09-19T00:30:29;3.20;;;1.52;;
75894;SDS011;64573;50.328;15.014;2023-09-19T00:32:54;5.50;;;1.60;;
75894;SDS011;64573;50.328;15.014;2023-09-19T00:35:20;5.20;;;1.75;;
75894;SDS011;64573;50.328;15.014;2023-09-19T00:37:49;3.80;;;1.58;;
75894;SDS011;64573;50.328;15.014;2023-09-19T00:40:15;4.20;;;1.73;;
75894;SDS011;64573;50.328;15.014;2023-09-19T00:42:44;5.05;;;2.00;;
75894;SDS011;64573;50.328;15.014;2023-09-19T00:45:11;3.05;;;1.55;;
75894;SDS011;64573;50.328;15.014;2023-09-19T00:47:41;4.75;;;1.83;;
75894;SDS011;64573;50.328;15.014;2023-09-19T00:50:09;2.97;;;1.63;;
75894;SDS011;64573;50.328;15.014;2023-09-19T00:52:36;5.07;;;1.70;;
75894;SDS011;64573;50.328;15.014;2023-09-19T00:55:07;2.15;;;1.60;;
75894;SDS011;64573;50.328;15.014;2023-09-19T00:57:34;5.32;;;1.80;;
75894;SDS011;64573;50.328;15.014;2023-09-19T01:00:02;4.47;;;1.95;;
75894;SDS011;64573;50.328;15.014;2023-09-19T01:02:32;2.03;;;1.50;;
75894;SDS011;64573;50.328;15.014;2023-09-19T01:04:58;5.22;;;1.45;;
75894;SDS011;64573;50.328;15.014;2023-09-19T01:07:24;4.40;;;1.60;;
75894;SDS011;64573;50.328;15.014;2023-09-19T01:09:50;3.50;;;1.63;;
75894;SDS011;64573;50.328;15.014;2023-09-19T01:12:17;7.65;;;2.00;;
75894;SDS011;64573;50.328;15.014;2023-09-19T01:14:55;5.65;;;1.80;;
75894;SDS011;64573;50.328;15.014;2023-09-19T01:17:43;4.82;;;2.30;;
75894;SDS011;64573;50.328;15.014;2023-09-19T01:23:05;3.00;;;1.60;;
75894;SDS011;64573;50.328;15.014;2023-09-19T01:31:01;5.95;;;1.63;;
75894;SDS011;64573;50.328;15.014;2023-09-19T01:33:28;3.58;;;1.60;;
75894;SDS011;64573;50.328;15.014;2023-09-19T01:35:59;2.50;;;1.38;;
75894;SDS011;64573;50.328;15.014;2023-09-19T01:38:24;4.75;;;1.30;;
75894;SDS011;64573;50.328;15.014;2023-09-19T01:40:57;4.13;;;1.50;;
75894;SDS011;64573;50.328;15.014;2023-09-19T01:43:32;2.70;;;1.58;;
75894;SDS011;64573;50.328;15.014;2023-09-19T01:46:04;2.95;;;1.77;;
75894;SDS011;64573;50.328;15.014;2023-09-19T01:51:06;3.17;;;1.55;;
75894;SDS011;64573;50.328;15.014;2023-09-19T01:56:23;2.58;;;1.15;;
75894;SDS011;64573;50.328;15.014;2023-09-19T01:58:55;2.78;;;1.45;;
75894;SDS011;64573;50.328;15.014;2023-09-19T02:01:24;5.97;;;1.10;;
75894;SDS011;64573;50.328;15.014;2023-09-19T02:03:51;4.20;;;1.48;;
75894;SDS011;64573;50.328;15.014;2023-09-19T02:06:18;2.20;;;1.13;;
75894;SDS011;64573;50.328;15.014;2023-09-19T02:08:44;3.28;;;1.30;;
75894;SDS011;64573;50.328;15.014;2023-09-19T02:11:10;3.95;;;1.58;;
75894;SDS011;64573;50.328;15.014;2023-09-19T02:13:36;4.38;;;1.40;;
75894;SDS011;64573;50.328;15.014;2023-09-19T02:16:02;4.65;;;1.80;;
75894;SDS011;64573;50.328;15.014;2023-09-19T02:18:29;3.13;;;1.80;;
75894;SDS011;64573;50.328;15.014;2023-09-19T02:20:55;3.40;;;1.75;;
75894;SDS011;64573;50.328;15.014;2023-09-19T02:23:21;4.45;;;1.90;;
75894;SDS011;64573;50.328;15.014;2023-09-19T02:25:53;3.53;;;1.50;;
75894;SDS011;64573;50.328;15.014;2023-09-19T02:28:19;6.15;;;2.10;;
75894;SDS011;64573;50.328;15.014;2023-09-19T02:30:47;3.17;;;1.60;;
75894;SDS011;64573;50.328;15.014;2023-09-19T02:33:13;2.75;;;1.55;;
75894;SDS011;64573;50.328;15.014;2023-09-19T02:35:39;4.13;;;1.70;;
75894;SDS011;64573;50.328;15.014;2023-09-19T02:38:04;4.38;;;1.60;;
75894;SDS011;64573;50.328;15.014;2023-09-19T02:40:32;2.65;;;1.42;;
75894;SDS011;64573;50.328;15.014;2023-09-19T02:43:00;3.30;;;1.75;;
75894;SDS011;64573;50.328;15.014;2023-09-19T02:45:26;2.65;;;1.67;;
75894;SDS011;64573;50.328;15.014;2023-09-19T02:47:52;4.00;;;1.70;;
75894;SDS011;64573;50.328;15.014;2023-09-19T02:50:17;6.20;;;1.88;;
75894;SDS011;64573;50.328;15.014;2023-09-19T02:52:44;7.07;;;2.08;;
75894;SDS011;64573;50.328;15.014;2023-09-19T02:55:11;6.32;;;2.00;;
75894;SDS011;64573;50.328;15.014;2023-09-19T02:57:39;4.95;;;2.00;;
75894;SDS011;64573;50.328;15.014;2023-09-19T03:00:08;3.85;;;1.90;;
75894;SDS011;64573;50.328;15.014;2023-09-19T03:02:35;6.78;;;2.20;;
75894;SDS011;64573;50.328;15.014;2023-09-19T03:05:01;3.92;;;2.20;;
75894;SDS011;64573;50.328;15.014;2023-09-19T03:07:28;4.55;;;2.17;;
75894;SDS011;64573;50.328;15.014;2023-09-19T03:09:53;3.05;;;1.65;;
75894;SDS011;64573;50.328;15.014;2023-09-19T03:12:20;2.17;;;1.80;;
75894;SDS011;64573;50.328;15.014;2023-09-19T03:14:45;5.75;;;1.90;;
75894;SDS011;64573;50.328;15.014;2023-09-19T03:17:10;5.55;;;2.15;;
75894;SDS011;64573;50.328;15.014;2023-09-19T03:19:36;6.95;;;2.10;;
75894;SDS011;64573;50.328;15.014;2023-09-19T03:22:04;4.47;;;1.73;;
75894;SDS011;64573;50.328;15.014;2023-09-19T03:24:29;2.13;;;1.58;;
75894;SDS011;64573;50.328;15.014;2023-09-19T03:26:56;2.70;;;2.00;;
75894;SDS011;64573;50.328;15.014;2023-09-19T03:29:22;3.63;;;1.60;;
75894;SDS011;64573;50.328;15.014;2023-09-19T03:31:47;4.18;;;1.85;;
75894;SDS011;64573;50.328;15.014;2023-09-19T03:34:13;6.95;;;1.85;;
75894;SDS011;64573;50.328;15.014;2023-09-19T03:36:38;4.55;;;1.40;;
75894;SDS011;64573;50.328;15.014;2023-09-19T03:39:05;2.22;;;1.42;;
75894;SDS011;64573;50.328;15.014;2023-09-19T03:41:31;5.03;;;1.90;;
75894;SDS011;64573;50.328;15.014;2023-09-19T03:43:58;4.50;;;1.58;;
75894;SDS011;64573;50.328;15.014;2023-09-19T03:46:23;2.28;;;1.45;;
75894;SDS011;64573;50.328;15.014;2023-09-19T03:48:49;3.55;;;1.40;;
75894;SDS011;64573;50.328;15.014;2023-09-19T03:51:15;2.50;;;1.30;;
75894;SDS011;64573;50.328;15.014;2023-09-19T03:53:40;2.50;;;1.55;;
75894;SDS011;64573;50.328;15.014;2023-09-19T03:56:06;3.25;;;1.40;;
75894;SDS011;64573;50.328;15.014;2023-09-19T03:58:31;4.38;;;1.38;;
75894;SDS011;64573;50.328;15.014;2023-09-19T04:00:57;2.95;;;1.70;;
75894;SDS011;64573;50.328;15.014;2023-09-19T04:05:52;3.75;;;1.55;;
75894;SDS011;64573;50.328;15.014;2023-09-19T04:08:18;2.55;;;1.63;;
75894;SDS011;64573;50.328;15.014;2023-09-19T04:10:43;3.60;;;1.35;;
75894;SDS011;64573;50.328;15.014;2023-09-19T04:13:09;4.82;;;1.95;;
75894;SDS011;64573;50.328;15.014;2023-09-19T04:15:35;3.45;;;1.40;;
75894;SDS011;64573;50.328;15.014;2023-09-19T04:18:00;2.90;;;1.42;;
75894;SDS011;64573;50.328;15.014;2023-09-19T04:20:25;2.65;;;1.58;;
75894;SDS011;64573;50.328;15.014;2023-09-19T04:22:51;3.08;;;1.60;;
75894;SDS011;64573;50.328;15.014;2023-09-19T04:25:17;4.60;;;1.70;;
75894;SDS011;64573;50.328;15.014;2023-09-19T04:27:44;4.15;;;1.60;;
75894;SDS011;64573;50.328;15.014;2023-09-19T04:30:09;2.95;;;1.77;;
75894;SDS011;64573;50.328;15.014;2023-09-19T04:32:36;2.42;;;1.60;;
75894;SDS011;64573;50.328;15.014;2023-09-19T04:35:06;2.65;;;1.50;;
75894;SDS011;64573;50.328;15.014;2023-09-19T04:37:34;3.70;;;1.50;;
75894;SDS011;64573;50.328;15.014;2023-09-19T04:40:01;2.72;;;1.83;;
75894;SDS011;64573;50.328;15.014;2023-09-19T04:42:29;4.32;;;1.50;;
75894;SDS011;64573;50.328;15.014;2023-09-19T04:44:55;2.38;;;1.40;;
75894;SDS011;64573;50.328;15.014;2023-09-19T04:47:20;4.82;;;1.50;;
75894;SDS011;64573;50.328;15.014;2023-09-19T04:49:47;2.72;;;1.58;;
75894;SDS011;64573;50.328;15.014;2023-09-19T04:52:12;3.97;;;1.92;;
75894;SDS011;64573;50.328;15.014;2023-09-19T04:54:40;5.47;;;2.22;;
75894;SDS011;64573;50.328;15.014;2023-09-19T04:57:06;2.30;;;1.90;;
75894;SDS011;64573;50.328;15.014;2023-09-19T04:59:31;3.17;;;1.58;;
75894;SDS011;64573;50.328;15.014;2023-09-19T05:01:57;6.43;;;1.85;;
75894;SDS011;64573;50.328;15.014;2023-09-19T05:04:23;2.60;;;1.65;;
75894;SDS011;64573;50.328;15.014;2023-09-19T05:06:48;4.53;;;1.95;;
75894;SDS011;64573;50.328;15.014;2023-09-19T05:09:13;2.80;;;1.65;;
75894;SDS011;64573;50.328;15.014;2023-09-19T05:11:40;5.00;;;1.70;;
75894;SDS011;64573;50.328;15.014;2023-09-19T05:14:05;7.82;;;1.88;;
75894;SDS011;64573;50.328;15.014;2023-09-19T05:16:30;3.53;;;1.88;;
75894;SDS011;64573;50.328;15.014;2023-09-19T05:18:58;3.42;;;2.17;;
75894;SDS011;64573;50.328;15.014;2023-09-19T05:21:25;3.35;;;1.90;;
75894;SDS011;64573;50.328;15.014;2023-09-19T05:23:53;2.92;;;1.90;;
75894;SDS011;64573;50.328;15.014;2023-09-19T05:26:19;4.43;;;2.15;;
75894;SDS011;64573;50.328;15.014;2023-09-19T05:28:44;2.78;;;1.92;;
75894;SDS011;64573;50.328;15.014;2023-09-19T05:31:10;2.72;;;1.88;;
75894;SDS011;64573;50.328;15.014;2023-09-19T05:33:35;3.70;;;1.95;;
75894;SDS011;64573;50.328;15.014;2023-09-19T05:36:00;4.20;;;2.25;;
75894;SDS011;64573;50.328;15.014;2023-09-19T05:38:26;3.53;;;2.00;;
75894;SDS011;64573;50.328;15.014;2023-09-19T05:40:51;5.60;;;2.20;;
75894;SDS011;64573;50.328;15.014;2023-09-19T05:43:16;5.57;;;2.20;;
75894;SDS011;64573;50.328;15.014;2023-09-19T05:45:43;4.20;;;2.17;;
75894;SDS011;64573;50.328;15.014;2023-09-19T05:48:14;2.42;;;1.92;;
75894;SDS011;64573;50.328;15.014;2023-09-19T05:50:41;4.50;;;2.25;;
75894;SDS011;64573;50.328;15.014;2023-09-19T05:53:07;5.40;;;2.50;;
75894;SDS011;64573;50.328;15.014;2023-09-19T05:55:32;4.60;;;2.40;;
75894;SDS011;64573;50.328;15.014;2023-09-19T05:57:58;3.38;;;2.10;;
75894;SDS011;64573;50.328;15.014;2023-09-19T06:00:24;6.03;;;2.10;;
75894;SDS011;64573;50.328;15.014;2023-09-19T06:02:55;6.03;;;2.10;;
75894;SDS011;64573;50.328;15.014;2023-09-19T06:05:23;4.97;;;2.30;;
75894;SDS011;64573;50.328;15.014;2023-09-19T06:07:51;4.43;;;2.60;;
75894;SDS011;64573;50.328;15.014;2023-09-19T06:10:17;5.55;;;2.20;;
75894;SDS011;64573;50.328;15.014;2023-09-19T06:12:45;4.72;;;2.10;;
75894;SDS011;64573;50.328;15.014;2023-09-19T06:15:12;4.65;;;2.55;;
75894;SDS011;64573;50.328;15.014;2023-09-19T06:17:50;2.45;;;1.83;;
75894;SDS011;64573;50.328;15.014;2023-09-19T06:20:20;3.28;;;2.17;;
75894;SDS011;64573;50.328;15.014;2023-09-19T06:22:45;4.75;;;2.20;;
75894;SDS011;64573;50.328;15.014;2023-09-19T06:25:11;2.42;;;1.90;;
75894;SDS011;64573;50.328;15.014;2023-09-19T06:27:40;3.38;;;1.70;;
75894;SDS011;64573;50.328;15.014;2023-09-19T06:30:08;3.15;;;2.08;;
75894;SDS011;64573;50.328;15.014;2023-09-19T06:32:34;5.28;;;1.95;;
75894;SDS011;64573;50.328;15.014;2023-09-19T06:34:59;3.55;;;1.70;;
75894;SDS011;64573;50.328;15.014;2023-09-19T06:37:27;3.15;;;1.98;;
75894;SDS011;64573;50.328;15.014;2023-09-19T06:39:53;4.63;;;2.00;;
75894;SDS011;64573;50.328;15.014;2023-09-19T06:42:18;3.70;;;1.90;;
75894;SDS011;64573;50.328;15.014;2023-09-19T06:44:44;3.40;;;2.03;;
75894;SDS011;64573;50.328;15.014;2023-09-19T06:47:09;2.83;;;1.88;;
75894;SDS011;64573;50.328;15.014;2023-09-19T06:49:35;3.35;;;2.08;;
75894;SDS011;64573;50.328;15.014;2023-09-19T06:52:01;2.63;;;1.58;;
75894;SDS011;64573;50.328;15.014;2023-09-19T06:54:27;2.35;;;1.83;;
75894;SDS011;64573;50.328;15.014;2023-09-19T06:56:56;3.05;;;1.67;;
75894;SDS011;64573;50.328;15.014;2023-09-19T06:59:25;5.38;;;2.10;;
75894;SDS011;64573;50.328;15.014;2023-09-19T07:01:50;3.45;;;2.15;;
75894;SDS011;64573;50.328;15.014;2023-09-19T07:04:18;5.18;;;1.88;;
75894;SDS011;64573;50.328;15.014;2023-09-19T07:06:49;2.83;;;1.70;;
75894;SDS011;64573;50.328;15.014;2023-09-19T07:09:15;4.70;;;2.08;;
75894;SDS011;64573;50.328;15.014;2023-09-19T07:11:41;4.53;;;2.20;;
75894;SDS011;64573;50.328;15.014;2023-09-19T07:14:07;6.72;;;2.33;;
75894;SDS011;64573;50.328;15.014;2023-09-19T07:16:33;4.32;;;1.90;;
75894;SDS011;64573;50.328;15.014;2023-09-19T07:18:58;4.05;;;2.25;;
75894;SDS011;64573;50.328;15.014;2023-09-19T07:21:24;3.40;;;2.25;;
75894;SDS011;64573;50.328;15.014;2023-09-19T07:23:49;4.43;;;2.22;;
75894;SDS011;64573;50.328;15.014;2023-09-19T07:26:15;4.15;;;2.42;;
75894;SDS011;64573;50.328;15.014;2023-09-19T07:28:41;7.07;;;3.00;;
75894;SDS011;64573;50.328;15.014;2023-09-19T07:31:06;6.70;;;3.50;;
75894;SDS011;64573;50.328;15.014;2023-09-19T07:33:35;4.22;;;3.10;;
75894;SDS011;64573;50.328;15.014;2023-09-19T07:36:01;4.32;;;2.95;;
75894;SDS011;64573;50.328;15.014;2023-09-19T07:38:26;5.75;;;3.10;;
75894;SDS011;64573;50.328;15.014;2023-09-19T07:40:52;3.80;;;3.00;;
75894;SDS011;64573;50.328;15.014;2023-09-19T07:43:17;7.97;;;3.67;;
75894;SDS011;64573;50.328;15.014;2023-09-19T07:45:43;4.47;;;3.15;;
75894;SDS011;64573;50.328;15.014;2023-09-19T07:48:08;6.43;;;3.22;;
75894;SDS011;64573;50.328;15.014;2023-09-19T07:50:39;4.43;;;3.00;;
75894;SDS011;64573;50.328;15.014;2023-09-19T07:53:05;3.95;;;2.97;;
75894;SDS011;64573;50.328;15.014;2023-09-19T07:55:30;5.43;;;2.80;;
75894;SDS011;64573;50.328;15.014;2023-09-19T07:57:58;6.20;;;3.50;;
75894;SDS011;64573;50.328;15.014;2023-09-19T08:00:24;4.72;;;3.00;;
75894;SDS011;64573;50.328;15.014;2023-09-19T08:02:49;3.45;;;2.85;;
75894;SDS011;64573;50.328;15.014;2023-09-19T08:05:16;4.57;;;2.90;;
75894;SDS011;64573;50.328;15.014;2023-09-19T08:07:43;4.43;;;3.15;;
75894;SDS011;64573;50.328;15.014;2023-09-19T08:10:10;13.70;;;3.25;;
75894;SDS011;64573;50.328;15.014;2023-09-19T08:12:40;4.70;;;3.03;;
75894;SDS011;64573;50.328;15.014;2023-09-19T08:15:14;3.80;;;2.90;;
75894;SDS011;64573;50.328;15.014;2023-09-19T08:17:44;4.38;;;2.72;;
75894;SDS011;64573;50.328;15.014;2023-09-19T08:20:10;4.65;;;2.95;;
75894;SDS011;64573;50.328;15.014;2023-09-19T08:22:46;3.50;;;2.65;;
75894;SDS011;64573;50.328;15.014;2023-09-19T08:25:14;8.88;;;2.90;;
75894;SDS011;64573;50.328;15.014;2023-09-19T08:27:42;4.25;;;2.65;;
75894;SDS011;64573;50.328;15.014;2023-09-19T08:30:10;5.35;;;2.58;;
75894;SDS011;64573;50.328;15.014;2023-09-19T08:32:36;4.70;;;2.28;;
75894;SDS011;64573;50.328;15.014;2023-09-19T08:35:01;7.18;;;2.50;;
75894;SDS011;64573;50.328;15.014;2023-09-19T08:37:26;3.72;;;2.42;;
75894;SDS011;64573;50.328;15.014;2023-09-19T08:39:52;4.60;;;2.20;;
75894;SDS011;64573;50.328;15.014;2023-09-19T08:42:17;3.67;;;2.20;;
75894;SDS011;64573;50.328;15.014;2023-09-19T08:44:45;5.07;;;2.10;;
75894;SDS011;64573;50.328;15.014;2023-09-19T08:47:11;2.38;;;1.50;;
75894;SDS011;64573;50.328;15.014;2023-09-19T08:49:49;2.28;;;1.60;;
75894;SDS011;64573;50.328;15.014;2023-09-19T08:52:28;3.38;;;2.03;;
75894;SDS011;64573;50.328;15.014;2023-09-19T08:55:02;3.92;;;1.50;;
75894;SDS011;64573;50.328;15.014;2023-09-19T08:57:35;3.33;;;1.90;;
75894;SDS011;64573;50.328;15.014;2023-09-19T09:00:04;4.78;;;1.60;;
75894;SDS011;64573;50.328;15.014;2023-09-19T09:02:37;2.25;;;1.60;;
75894;SDS011;64573;50.328;15.014;2023-09-19T09:05:08;4.47;;;1.48;;
75894;SDS011;64573;50.328;15.014;2023-09-19T09:07:35;2.75;;;1.75;;
75894;SDS011;64573;50.328;15.014;2023-09-19T09:10:04;1.80;;;1.30;;
75894;SDS011;64573;50.328;15.014;2023-09-19T09:12:31;1.58;;;1.40;;
75894;SDS011;64573;50.328;15.014;2023-09-19T09:14:56;2.90;;;1.55;;
75894;SDS011;64573;50.328;15.014;2023-09-19T09:17:25;3.30;;;1.40;;
75894;SDS011;64573;50.328;15.014;2023-09-19T09:19:54;2.50;;;1.38;;
75894;SDS011;64573;50.328;15.014;2023-09-19T09:22:19;1.98;;;1.17;;
75894;SDS011;64573;50.328;15.014;2023-09-19T09:24:52;2.35;;;1.40;;
75894;SDS011;64573;50.328;15.014;2023-09-19T09:27:19;1.63;;;1.23;;
75894;SDS011;64573;50.328;15.014;2023-09-19T09:29:46;3.15;;;1.35;;
75894;SDS011;64573;50.328;15.014;2023-09-19T09:34:43;3.53;;;1.20;;
75894;SDS011;64573;50.328;15.014;2023-09-19T09:37:13;1.45;;;1.10;;
75894;SDS011;64573;50.328;15.014;2023-09-19T09:39:53;1.50;;;1.30;;
75894;SDS011;64573;50.328;15.014;2023-09-19T09:42:31;2.75;;;1.27;;
75894;SDS011;64573;50.328;15.014;2023-09-19T09:45:21;2.97;;;1.33;;
75894;SDS011;64573;50.328;15.014;2023-09-19T09:48:00;3.05;;;1.25;;
75894;SDS011;64573;50.328;15.014;2023-09-19T09:50:30;1.38;;;1.10;;
75894;SDS011;64573;50.328;15.014;2023-09-19T09:53:21;1.90;;;1.20;;
75894;SDS011;64573;50.328;15.014;2023-09-19T09:55:56;2.50;;;1.30;;
75894;SDS011;64573;50.328;15.014;2023-09-19T09:58:27;2.05;;;1.30;;
75894;SDS011;64573;50.328;15.014;2023-09-19T10:00:57;2.03;;;1.15;;
75894;SDS011;64573;50.328;15.014;2023-09-19T10:03:37;2.85;;;1.25;;
75894;SDS011;64573;50.328;15.014;2023-09-19T10:06:08;2.50;;;1.08;;
75894;SDS011;64573;50.328;15.014;2023-09-19T10:08:57;5.05;;;1.30;;
75894;SDS011;64573;50.328;15.014;2023-09-19T10:11:47;1.75;;;1.00;;
75894;SDS011;64573;50.328;15.014;2023-09-19T10:14:19;1.95;;;0.88;;
75894;SDS011;64573;50.328;15.014;2023-09-19T10:16:49;0.80;;;0.80;;
75894;SDS011;64573;50.328;15.014;2023-09-19T10:19:17;2.42;;;1.30;;
75894;SDS011;64573;50.328;15.014;2023-09-19T10:22:04;1.92;;;1.20;;
75894;SDS011;64573;50.328;15.014;2023-09-19T10:24:30;2.55;;;1.20;;
75894;SDS011;64573;50.328;15.014;2023-09-19T10:26:59;3.85;;;1.20;;
75894;SDS011;64573;50.328;15.014;2023-09-19T10:29:25;2.17;;;1.08;;
75894;SDS011;64573;50.328;15.014;2023-09-19T10:31:56;2.25;;;0.98;;
75894;SDS011;64573;50.328;15.014;2023-09-19T10:34:23;2.40;;;1.05;;
75894;SDS011;64573;50.328;15.014;2023-09-19T10:36:50;1.65;;;1.00;;
75894;SDS011;64573;50.328;15.014;2023-09-19T10:39:16;1.38;;;0.90;;
75894;SDS011;64573;50.328;15.014;2023-09-19T10:41:51;2.22;;;1.17;;
75894;SDS011;64573;50.328;15.014;2023-09-19T10:44:24;1.83;;;1.17;;
75894;SDS011;64573;50.328;15.014;2023-09-19T10:46:50;1.38;;;1.13;;
75894;SDS011;64573;50.328;15.014;2023-09-19T10:49:17;1.00;;;0.80;;
75894;SDS011;64573;50.328;15.014;2023-09-19T10:51:43;2.20;;;1.05;;
75894;SDS011;64573;50.328;15.014;2023-09-19T10:56:46;1.33;;;0.80;;
75894;SDS011;64573;50.328;15.014;2023-09-19T10:59:15;1.30;;;0.85;;
75894;SDS011;64573;50.328;15.014;2023-09-19T11:01:46;1.67;;;0.90;;
75894;SDS011;64573;50.328;15.014;2023-09-19T11:04:20;1.88;;;0.90;;
75894;SDS011;64573;50.328;15.014;2023-09-19T11:07:07;1.55;;;0.90;;
75894;SDS011;64573;50.328;15.014;2023-09-19T11:09:55;5.30;;;1.15;;
75894;SDS011;64573;50.328;15.014;2023-09-19T11:15:02;1.40;;;0.93;;
75894;SDS011;64573;50.328;15.014;2023-09-19T11:17:38;1.35;;;0.93;;
75894;SDS011;64573;50.328;15.014;2023-09-19T11:30:47;2.75;;;1.13;;
75894;SDS011;64573;50.328;15.014;2023-09-19T11:33:21;1.65;;;0.90;;
75894;SDS011;64573;50.328;15.014;2023-09-19T11:46:24;1.75;;;1.23;;
75894;SDS011;64573;50.328;15.014;2023-09-19T11:48:50;1.00;;;0.82;;
75894;SDS011;64573;50.328;15.014;2023-09-19T11:51:17;2.72;;;1.30;;
75894;SDS011;64573;50.328;15.014;2023-09-19T11:53:52;2.35;;;1.02;;
75894;SDS011;64573;50.328;15.014;2023-09-19T11:56:20;1.67;;;1.13;;
75894;SDS011;64573;50.328;15.014;2023-09-19T11:58:49;1.55;;;0.98;;
75894;SDS011;64573;50.328;15.014;2023-09-19T12:01:22;2.28;;;1.20;;
75894;SDS011;64573;50.328;15.014;2023-09-19T12:03:52;2.00;;;1.10;;
75894;SDS011;64573;50.328;15.014;2023-09-19T12:06:22;1.10;;;0.80;;
75894;SDS011;64573;50.328;15.014;2023-09-19T12:08:48;3.55;;;1.10;;
75894;SDS011;64573;50.328;15.014;2023-09-19T12:11:15;1.60;;;0.85;;
75894;SDS011;64573;50.328;15.014;2023-09-19T12:13:45;2.35;;;0.95;;
75894;SDS011;64573;50.328;15.014;2023-09-19T12:16:15;3.03;;;0.95;;
75894;SDS011;64573;50.328;15.014;2023-09-19T12:18:42;1.98;;;1.10;;
75894;SDS011;64573;50.328;15.014;2023-09-19T12:21:28;1.50;;;0.98;;
75894;SDS011;64573;50.328;15.014;2023-09-19T12:24:03;3.13;;;0.88;;
75894;SDS011;64573;50.328;15.014;2023-09-19T12:26:44;3.15;;;0.80;;
75894;SDS011;64573;50.328;15.014;2023-09-19T12:29:19;1.25;;;0.98;;
75894;SDS011;64573;50.328;15.014;2023-09-19T12:31:50;1.27;;;0.90;;
75894;SDS011;64573;50.328;15.014;2023-09-19T12:34:19;1.42;;;0.70;;
75894;SDS011;64573;50.328;15.014;2023-09-19T12:36:46;1.17;;;0.90;;
75894;SDS011;64573;50.328;15.014;2023-09-19T12:39:21;1.60;;;1.00;;
75894;SDS011;64573;50.328;15.014;2023-09-19T12:41:48;0.88;;;0.80;;
75894;SDS011;64573;50.328;15.014;2023-09-19T12:44:15;1.55;;;0.93;;
75894;SDS011;64573;50.328;15.014;2023-09-19T12:46:43;2.70;;;1.20;;
75894;SDS011;64573;50.328;15.014;2023-09-19T12:49:19;1.52;;;0.90;;
75894;SDS011;64573;50.328;15.014;2023-09-19T12:51:46;1.10;;;0.80;;
75894;SDS011;64573;50.328;15.014;2023-09-19T12:54:12;1.58;;;0.90;;
75894;SDS011;64573;50.328;15.014;2023-09-19T12:56:41;2.90;;;1.08;;
75894;SDS011;64573;50.328;15.014;2023-09-19T12:59:09;0.98;;;0.68;;
75894;SDS011;64573;50.328;15.014;2023-09-19T13:01:38;1.42;;;0.80;;
75894;SDS011;64573;50.328;15.014;2023-09-19T13:04:13;2.88;;;1.10;;
75894;SDS011;64573;50.328;15.014;2023-09-19T13:06:49;1.48;;;0.90;;
75894;SDS011;64573;50.328;15.014;2023-09-19T13:09:15;2.33;;;0.80;;
75894;SDS011;64573;50.328;15.014;2023-09-19T13:11:41;1.52;;;0.70;;
75894;SDS011;64573;50.328;15.014;2023-09-19T13:17:00;0.80;;;0.65;;
75894;SDS011;64573;50.328;15.014;2023-09-19T13:19:39;1.85;;;0.80;;
75894;SDS011;64573;50.328;15.014;2023-09-19T13:25:01;0.63;;;0.60;;
75894;SDS011;64573;50.328;15.014;2023-09-19T13:27:28;1.63;;;0.80;;
75894;SDS011;64573;50.328;15.014;2023-09-19T13:29:54;1.40;;;0.70;;
75894;SDS011;64573;50.328;15.014;2023-09-19T13:32:19;1.02;;;0.70;;
75894;SDS011;64573;50.328;15.014;2023-09-19T13:34:45;1.00;;;0.60;;
75894;SDS011;64573;50.328;15.014;2023-09-19T13:37:11;0.82;;;0.70;;
75894;SDS011;64573;50.328;15.014;2023-09-19T13:39:38;1.77;;;0.80;;
75894;SDS011;64573;50.328;15.014;2023-09-19T13:42:08;1.13;;;0.55;;
75894;SDS011;64573;50.328;15.014;2023-09-19T13:44:35;1.27;;;0.63;;
75894;SDS011;64573;50.328;15.014;2023-09-19T13:47:00;10.13;;;0.60;;
75894;SDS011;64573;50.328;15.014;2023-09-19T13:49:31;2.03;;;0.80;;
75894;SDS011;64573;50.328;15.014;2023-09-19T13:51:57;0.50;;;0.50;;
75894;SDS011;64573;50.328;15.014;2023-09-19T13:54:26;0.80;;;0.50;;
75894;SDS011;64573;50.328;15.014;2023-09-19T13:56:51;1.55;;;0.70;;
75894;SDS011;64573;50.328;15.014;2023-09-19T13:59:17;0.60;;;0.57;;
75894;SDS011;64573;50.328;15.014;2023-09-19T14:01:43;0.95;;;0.70;;
75894;SDS011;64573;50.328;15.014;2023-09-19T14:04:08;1.15;;;0.60;;
75894;SDS011;64573;50.328;15.014;2023-09-19T14:06:35;0.68;;;0.65;;
75894;SDS011;64573;50.328;15.014;2023-09-19T14:09:02;2.00;;;0.70;;
75894;SDS011;64573;50.328;15.014;2023-09-19T14:11:29;1.13;;;0.60;;
75894;SDS011;64573;50.328;15.014;2023-09-19T14:13:54;1.52;;;0.70;;
75894;SDS011;64573;50.328;15.014;2023-09-19T14:16:20;1.45;;;0.80;;
75894;SDS011;64573;50.328;15.014;2023-09-19T14:18:47;0.90;;;0.60;;
75894;SDS011;64573;50.328;15.014;2023-09-19T14:21:12;1.75;;;0.73;;
75894;SDS011;64573;50.328;15.014;2023-09-19T14:23:38;1.00;;;0.50;;
75894;SDS011;64573;50.328;15.014;2023-09-19T14:26:04;1.23;;;0.75;;
75894;SDS011;64573;50.328;15.014;2023-09-19T14:28:32;4.57;;;0.70;;
75894;SDS011;64573;50.328;15.014;2023-09-19T14:31:08;0.68;;;0.65;;
75894;SDS011;64573;50.328;15.014;2023-09-19T14:33:34;1.38;;;0.95;;
75894;SDS011;64573;50.328;15.014;2023-09-19T14:36:07;1.08;;;0.70;;
75894;SDS011;64573;50.328;15.014;2023-09-19T14:38:34;1.42;;;0.85;;
75894;SDS011;64573;50.328;15.014;2023-09-19T14:41:01;1.25;;;0.82;;
75894;SDS011;64573;50.328;15.014;2023-09-19T14:43:27;2.83;;;1.00;;
75894;SDS011;64573;50.328;15.014;2023-09-19T14:45:55;0.75;;;0.65;;
75894;SDS011;64573;50.328;15.014;2023-09-19T14:48:22;7.15;;;0.90;;
75894;SDS011;64573;50.328;15.014;2023-09-19T14:50:50;1.25;;;0.80;;
75894;SDS011;64573;50.328;15.014;2023-09-19T14:53:16;3.80;;;0.95;;
75894;SDS011;64573;50.328;15.014;2023-09-19T14:55:41;2.40;;;0.73;;
75894;SDS011;64573;50.328;15.014;2023-09-19T14:58:10;2.25;;;0.73;;
75894;SDS011;64573;50.328;15.014;2023-09-19T15:00:37;1.08;;;0.88;;
75894;SDS011;64573;50.328;15.014;2023-09-19T15:03:02;1.75;;;0.80;;
75894;SDS011;64573;50.328;15.014;2023-09-19T15:05:28;2.50;;;0.80;;
75894;SDS011;64573;50.328;15.014;2023-09-19T15:07:56;9.07;;;0.90;;
75894;SDS011;64573;50.328;15.014;2023-09-19T15:10:23;2.15;;;0.85;;
75894;SDS011;64573;50.328;15.014;2023-09-19T15:12:49;0.77;;;0.68;;
75894;SDS011;64573;50.328;15.014;2023-09-19T15:15:14;1.83;;;0.80;;
75894;SDS011;64573;50.328;15.014;2023-09-19T15:17:39;2.25;;;0.98;;
75894;SDS011;64573;50.328;15.014;2023-09-19T15:20:05;1.38;;;0.80;;
75894;SDS011;64573;50.328;15.014;2023-09-19T15:22:32;1.05;;;0.68;;
75894;SDS011;64573;50.328;15.014;2023-09-19T15:24:59;1.27;;;0.90;;
75894;SDS011;64573;50.328;15.014;2023-09-19T15:27:26;1.92;;;0.68;;
75894;SDS011;64573;50.328;15.014;2023-09-19T15:29:52;2.05;;;0.80;;